the time You need

Il Carpegna mi Basta

Carpegna, Pesaro Urbino   Italy

domenica 15 maggio 2016

Percorsi

MEDIO - 29.0 Km

 

LUNGO - 39.0 Km

 

CORTO - 22.0 Km

Servizi

ADSCOSTPunti KS Ranking

Chip

Circuiti

Caveja Bike CupItalian 6 RaceTour 3 Regioni SCOTTUmbria Marathon MTB

Ente

FCI

Info

CLASSIFICA

MEDIO - 29.0 Km

Pos Atleta Sesso Cat PosC Team Tempo Media RTime
Sq. CIMINI LUCIANO M M7 - ASD TEAM BIKE VALCONCA 01:39:03.25 17,57 01:39:03.25
Sq. BASTIA SANDRO M M5 - ASD GREEN DEVILS 01:41:10.64 17,20 01:41:10.64
Sq. FERRIERO ANTONIO M M3 - FALCO RACING 01:39:09.50 17,55 01:39:09.50
Sq. GUAGNELI ALESSANDRO M JUN - ASD LE SALINE NATURA E SPORT 02:17:38.50 12,64 02:17:38.50
Sq. PEDRONI ALESSANDRO M M7 - ADSCOST 00:17:59.19 96,76 00:17:59.19
1 RIPA STEFANO M M2 1 TEAM MONDOBICI TECNOPLAST 01:35:09.50 18,29 01:35:09.50
2 FABRIZI LUCA M ELMT 1 GC MELANIA 01:38:33.66 17,66 01:38:33.66
3 FRISONI GUIDO M M4 1 BENESSERE E SPORT SSD A RL 01:38:56.10 17,59 01:38:56.10
4 MOSCA MARCO M M2 2 TEAM CINGOLANI - SPECIALIZED 01:38:57.40 17,58 01:38:57.40
5 FIORETTI RICCARDO M ELMT 2 ASD GIULIODORI RENZO BIKE CLUB CAFE´ 01:40:41.16 17,28 01:40:41.16
6 MARIGNANI GIACOMO M M1 1 TEAM SCOTT PASQUINI STELLA AZZURRA 01:47:45.90 16,15 01:47:45.90
7 DE BONIS ENEA M CT 1 LEPRI DI ROMAGNA 01:47:46.51 16,15 01:47:46.51
8 ROSSI DANIELE M M1 2 CAVALLINO - SPECIALIZED 01:55:50.20 15,02 01:55:50.20
9 TESTA STEFANO M ELMT 3 TEAM MONDOBICI TECNOPLAST 01:59:01.30 14,62 01:59:01.30
10 VICHI CRISTIAN M CT 2 CAVALLINO - SPECIALIZED 01:59:28.00 14,56 01:59:28.00
11 VECCHI DANIELE M M6 1 BD FAST 02:00:48.55 14,40 02:00:48.55
12 AMELI GERARDO M ELMT 4 GS CASTELTROSINO SUPERBIKE 02:02:49.64 14,17 02:02:49.64
13 LAZZERINI STEFANO M M4 2 GC CARPEGNA AVIS ALTO MONTEFELTRO 02:03:53.70 14,05 02:03:53.70
14 CASAGRANDE FRANCESCO M M1 3 TEAM MONDOBICI TECNOPLAST 02:04:37.31 13,96 02:04:37.31
15 PELLEGRINO PIERPAOLO M M2 3 ASDC VALLE DEL CONCA NORDIC WALKING 02:09:22.30 13,45 02:06:18.10
16 MORETTI MARINO M M7 1 SAN MARINO MTB TEAM 02:10:06.05 13,37 02:10:06.05
17 CHECCAGLINI CLAUDIO M M5 1 TEAM SCOTT PASQUINI STELLA AZZURRA 02:11:29.10 13,23 02:11:29.10
18 CASTORRI DANIELE M M3 1 CICLI NERI TEAM 02:13:41.42 13,02 02:13:41.42
19 VIRGILI LUIGI M M3 2 ASD GIULIODORI RENZO BIKE CLUB CAFE´ 02:14:39.90 12,92 02:14:39.90
20 D´ASCANIO ANDREA M M3 3 ASD VEREGRA BIKE 02:17:56.34 12,61 02:17:56.34
21 TESTA GIUSEPPE M M6 2 GS CASTELTROSINO SUPERBIKE 02:21:34.15 12,29 02:21:34.15
22 SCARCELLI SEBASTIANO M M2 4 TEAMBOTA 02:23:10.08 12,15 02:23:10.08
23 GUASTAMACCHIA NICOLA M M5 2 ASD SBUBBIKERS 02:23:21.23 12,14 02:23:21.23
24 PAGGETTI ELEONORA F MW1 1 ASD GS POPPI 02:29:16.13 11,66 02:29:16.13
25 ANGELI FLAVIO M M4 3 TEAM BIKE LUNANO 02:31:18.84 11,50 02:31:18.84
26 BARIGELLI ANDREA M CT 3 INDIVIDUALE 02:33:14.83 11,36 02:33:14.83
27 GILLI GIULIANO M M7 2 ASD CESENA BIKE 02:33:43.70 11,32 02:33:43.70
28 PUZZOVIO ROBERTO M M5 3 TEAM DISCOVERY MTB 02:35:30.40 11,19 02:35:30.40
29 BELLEI MARCO M M6 3 GS CELLA 02:37:34.68 11,04 02:37:34.68
30 BARBARINI MICHELE M M2 5 TEAM CINGOLANI - SPECIALIZED 02:39:47.85 10,89 02:39:47.85
31 BARTOLINI SINCERO M M6 4 GS CICLI MATTEONI BIANCHI 02:39:55.36 10,88 02:39:55.36
32 GUIDAZZI GUERRINO M M3 4 PEDALE CESENATE CICLI NERI 02:43:19.42 10,65 02:43:19.42
33 NERI VENANZIO M M4 4 GOOD BIKE AS RONCOFREDDESE 02:43:35.50 10,64 02:43:35.50
34 BARTOLINI STEFANO M M1 4 GOOD BIKE AS RONCOFREDDESE 02:43:35.68 10,64 02:43:35.68
35 MARCHEGIANI SIMONE M M5 4 AVIS BIKE CINGOLI 02:47:26.79 10,39 02:47:26.79
36 RAGGI LUCIANO M M6 5 GOOD BIKE AS RONCOFREDDESE 02:49:51.67 10,24 02:49:51.67
37 MOSCHINI MASSIMO M M3 5 FALCO RACING 02:51:11.92 10,16 02:51:11.92
38 ROMBOLI RICCARDO M M7 3 GOOD BIKE AS RONCOFREDDESE 02:54:32.60 9,97 02:54:32.60
39 LUCCHETTI GIANLUCA M M5 5 CAVALLINO - SPECIALIZED 03:02:09.18 9,55 03:02:09.18
40 FRANCESCHETTI MATTEO M CT 4 INDIVIDUALE 03:24:17.75 8,52 03:23:56.25
41 TANI GIAN LUCA M M4 5 COMERO BIKE 03:27:37.40 8,38 03:27:37.40
42 BERNABINI STEFANO M M4 6 COMERO BIKE 03:27:37.80 8,38 03:27:37.80
43 PACI PIETRO M M5 6 COMERO BIKE 03:36:31.20 8,04 03:36:31.20

LUNGO - 39.0 Km

Pos Atleta Sesso Cat PosC Team Tempo Media RTime
Sq. GARATTONI MATTEO M M4 - TEAM NOB JOLLYWEAR 01:47:22.30 21,79 01:47:22.30
1 ROCCHETTI LEOPOLDO M OPEN 1 TEAM CINGOLANI - SPECIALIZED 01:42:54.15 22,74 01:42:54.15
2 MIKHAILOUSKI SERGHEY M M3 1 TEAM MONDOBICI TECNOPLAST 01:44:12.91 22,46 01:44:12.91
3 PIERPAOLI LORENZO M OPEN 2 TEAM CINGOLANI - SPECIALIZED 01:45:18.01 22,22 01:45:18.01
4 FORZINI MARCO M M1 1 TEAM SCOTT PASQUINI STELLA AZZURRA 01:46:10.10 22,04 01:46:10.10
5 LUNGHI SIMONE M M2 1 TEAM MONDOBICI TECNOPLAST 01:47:46.01 21,71 01:47:46.01
6 FRANCIONI MARCO M ELMT 1 TEAM NOB JOLLYWEAR 01:47:46.30 21,71 01:47:46.30
7 PAPERINI PATRIZIO M M2 2 TEAM SCOTT PASQUINI STELLA AZZURRA 01:47:46.88 21,71 01:47:46.88
8 GARELLI DAVIDE M M2 3 ASD POLISPORTIVA SANMAURESE NOB 01:49:45.80 21,32 01:49:45.80
9 GHISELLI MICHELE M M2 4 A.S.D. I MUFLONI RACING TEAM 01:50:17.10 21,22 01:50:17.10
10 URBINATI LUCA M M1 2 TEAM MONDOBICI TECNOPLAST 01:50:35.88 21,16 01:50:35.88
11 ZAMA LORENZO M M1 3 TEAM PASSION FAENTINA 01:51:25.77 21,00 01:51:25.77
12 GATTONI LUCA M ELMT 2 TEAM MONDOBICI TECNOPLAST 01:52:00.70 20,89 01:52:00.70
13 SANTELLI GIUSEPPE M M3 2 TEAM CINGOLANI - SPECIALIZED 01:52:15.60 20,85 01:52:15.60
14 GALAMINI MAURIZIO M M5 1 BARACCA LUGO CORSA MTB 01:52:16.26 20,84 01:52:16.26
15 FRANCIONI LUCA M M1 4 TEAM NOB JOLLYWEAR 01:52:23.70 20,82 01:52:23.70
16 VITALE FRANCESCO M M1 5 UC PETRIGNANO 01:52:46.48 20,75 01:52:46.48
17 ROSSI FEDERICO M ELMT 3 TEAM CINGOLANI - SPECIALIZED 01:52:49.12 20,74 01:52:49.12
18 POGGIALI MARCO M M2 5 TEAM NOB JOLLYWEAR 01:52:49.55 20,74 01:52:49.55
19 TIBERI MATTEO M M1 6 TEAM MONDOBICI TECNOPLAST 01:52:55.80 20,72 01:52:55.80
20 BARBERINI ALESSANDRO M ELMT 4 TEAM NOB JOLLYWEAR 01:53:15.18 20,66 01:53:15.18
21 BOVINO MARIO M M4 1 KTM FORTI E LIBERI 01:53:41.80 20,58 01:53:41.80
22 POLVERINO ANDREA M M1 7 KTM FORTI E LIBERI 01:53:51.30 20,55 01:53:51.30
23 BURZI MILO M M2 6 TEAM SCOTT PASQUINI STELLA AZZURRA 01:54:35.90 20,42 01:54:35.90
24 MALUSARDI DANIELE M ELMT 5 ASD GREEN DEVILS 01:54:47.30 20,39 01:54:47.30
25 RAFFAELLI SAMUELE M M2 7 TEAM MONDOBICI TECNOPLAST 01:54:48.10 20,38 01:54:48.10
26 BRUE´ NICOLA M ELMT 6 ASD RAVEN TEAM 01:55:04.00 20,34 01:55:04.00
27 ACCORDI LUCA M ELMT 7 OSTERIA BIKE ASD 01:55:18.94 20,29 01:55:18.94
28 PUGLISI DANIELE M ELMT 8 ASD BLACK ROAD 01:55:20.19 20,29 01:55:20.19
29 GAROFALO LUCA M M3 3 ASD BICI ADVENTURE TEAM 01:55:59.70 20,18 01:55:59.70
30 GAMBELLI MASSIMO M M4 2 TEAM CINGOLANI - SPECIALIZED 01:56:20.80 20,11 01:56:20.80
31 BUSSI SIMONE M M2 8 VENTURI ADVENTURE TEAM 01:56:21.87 20,11 01:56:21.87
32 COLLINI FRANCESCO M M1 8 GS BULGARNO´ BIKE 2008 01:56:23.20 20,11 01:56:23.20
33 RENZI NICOLA M M3 4 PROBIKERS 01:56:39.00 20,06 01:56:39.00
34 GIOVANNINI FABIO M M4 3 SAN MARINO RACE TEAM 01:56:39.00 20,06 01:56:39.00
35 TIBERI ENRICO M M2 9 TEAM MONDOBICI TECNOPLAST 01:57:18.65 19,95 01:57:18.65
36 ROVELLI ALESSANDRO M M1 9 INDIVIDUALE 01:57:26.00 19,93 01:57:26.00
37 VECCIOLINI FABIO M M2 10 ASD STELLA BIKE 01:57:28.59 19,92 01:57:28.59
38 MARTELLA ALFREDO M M2 11 ASD MC2 BIKE 01:57:50.00 19,86 01:57:50.00
39 POLI ROBERTO M OPEN 3 GS CASTELTROSINO SUPERBIKE 01:57:51.91 19,86 01:57:51.91
40 PETRENI MASSIMO M M4 4 CAVALLINO - SPECIALIZED 01:58:32.07 19,74 01:58:32.07
41 FONTANELLI MATTEO M ELMT 9 TEAM PASSION FAENTINA 01:58:43.80 19,71 01:58:43.80
42 LUZI LUIGI M M3 5 GS CASTELTROSINO SUPERBIKE 01:58:51.40 19,69 01:58:51.40
43 FABBRI CHRISTIAN M M3 6 TEAM PASSION FAENTINA 01:58:57.62 19,67 01:58:57.62
44 LISPI SIMONE M M1 10 ASD MC2 BIKE 01:59:20.00 19,61 01:59:20.00
45 BIANCHI LUCA M M2 12 ASD TEAM BIKE VALCONCA 01:59:20.18 19,61 01:59:20.18
46 SEMPRINI STEFANO M M5 2 TEAM NOB JOLLYWEAR 02:00:20.00 19,45 02:00:20.00
47 BRAVACCINI MATTEO M M1 11 COMERO BIKE 02:00:30.30 19,42 02:00:30.30
48 BRANDINI ALESSIO M M5 3 DONKEY BIKE CLUB SINALUNGA 02:00:47.34 19,37 02:00:47.34
49 CIARROCCHI DAVID M M2 13 ASD ARES BIKE TEAM 02:00:54.18 19,35 02:00:54.18
50 CALISE MARCO M M6 1 ASCD VALLE DEL CONCA 02:00:55.50 19,35 02:00:55.50
51 GUIDI MIRCO M M3 7 SAN MARINO RACE TEAM 02:01:13.00 19,30 02:01:13.00
52 SALVATORI STEFANO M M6 2 KTM FORTI E LIBERI 02:01:13.80 19,30 02:01:13.80
53 BIGI MARCO M M3 8 CAVALLINO - SPECIALIZED 02:01:24.30 19,28 02:01:24.30
54 FRANCIONI GIULIO M ELMT 10 TEAM BIKE LUNANO 02:01:37.00 19,24 02:01:37.00
55 FOSCHI CRISTIAN M M3 9 BARACCA LUGO CORSA MTB 02:01:37.50 19,24 02:01:37.50
56 RAGGI FABIO M M2 14 GOOD BIKE AS RONCOFREDDESE 02:01:49.60 19,21 02:01:49.60
57 GUGLIELMI MATTEO M M3 10 TEAM BIKE COCIF.COM ASD 02:01:57.10 19,19 02:01:57.10
58 RUFFILLI PAOLO M M2 15 SPACCO ASD 02:02:05.41 19,17 02:02:05.41
59 BUGIOLACCHIO LUCA M M3 11 ASD GIULIODORI RENZO BIKE CLUB CAFE´ 02:02:06.50 19,16 02:02:06.50
60 ROSTI SIMONE M M1 12 ASD POLISPORTIVA SANMAURESE NOB 02:02:13.53 19,15 02:02:13.53
61 GIACHE´ LUCA M ELMT 11 TEAM CINGOLANI - SPECIALIZED 02:02:16.16 19,14 02:02:16.16
62 MANIGRASSO GIOVANNI M M4 5 ASD ONLYOFF DUE RUOTE 02:02:30.70 19,10 02:02:30.70
63 LARGHI MARCO M ELMT 12 CAVALLINO - SPECIALIZED 02:02:37.80 19,08 02:02:37.80
64 BATTILA MASSIMILIANO M M2 16 ASD STELLA BIKE 02:02:45.70 19,06 02:02:45.70
65 DI EMIDIO GIANLUCA M ELMT 13 GS CASTELTROSINO SUPERBIKE 02:02:46.68 19,06 02:02:46.68
66 PRINCIPI FRANCESCO M M1 13 ASD ARES BIKE TEAM 02:02:55.70 19,04 02:02:55.70
67 MANZAROLI SAURO M M4 6 SAN MARINO MTB TEAM 02:03:00.50 19,02 02:03:00.50
68 MURATORI ERIVAN M M2 17 TEAM NOB JOLLYWEAR 02:03:02.00 19,02 02:03:02.00
69 TABONI MIRCO M M2 18 TEAM MONDOBICI TECNOPLAST 02:03:14.90 18,99 02:03:14.90
70 PELLEGRINO PARIDE M M4 7 TEAM TORPEDO BIKE 02:03:15.10 18,99 02:03:15.10
71 PAGLIARANI MARCO M M3 12 ASD MEDINOX 02:03:35.70 18,93 02:03:35.70
72 RICEPUTI LUCA M M2 19 TEAM ESSERE E MTBICIO 02:03:44.50 18,91 02:03:44.50
73 CENSORI FABIO M M1 14 ASD FUORISOGLIA 02:03:54.11 18,89 02:03:54.11
74 SANTOLINI CRISTIANO M ELMT 14 ASD BICI ADVENTURE TEAM 02:03:54.20 18,89 02:03:54.20
75 GUGLIELMI THOMAS M M2 20 SPACCO ASD 02:04:17.10 18,83 02:04:17.10
76 SBROCCA GIACOMO M ELMT 15 TEAM BIKE LUNANO 02:04:22.20 18,82 02:04:22.20
77 CAMELI EMIDIO M ELMT 16 GS CASTELTROSINO SUPERBIKE 02:04:31.85 18,79 02:04:31.85
78 POLI ANDREA M OPEN 4 GS CASTELTROSINO SUPERBIKE 02:04:32.18 18,79 02:04:32.18
79 CACCHIANI RICHARD M M3 13 ASD GS POPPI 02:04:56.00 18,73 02:04:56.00
80 PRINCIPI LUCA M M2 21 ASD ARES BIKE TEAM 02:05:10.77 18,70 02:05:10.77
81 PIERANTONI SIMONE M M3 14 TEAM MONDOBICI TECNOPLAST 02:05:18.18 18,68 02:05:18.18
82 PRIMAVERI GIANFRANCO M M6 3 TEAM SCOTT PASQUINI STELLA AZZURRA 02:05:29.90 18,65 02:05:29.90
83 SALVATORI DAVIDE M ELMT 17 KTM FORTI E LIBERI 02:05:46.80 18,61 02:05:46.80
84 FIRMIANI MARCO M M2 22 ASD SAMBI TEAM 02:06:00.80 18,57 02:06:00.80
85 FIORINI FABIO M M5 4 KTM FORTI E LIBERI 02:06:19.20 18,52 02:06:19.20
86 BERTI ANDREA M M1 15 ASCD VALLE DEL CONCA 02:06:34.50 18,49 02:06:34.50
87 MONTI ANDREA M M3 15 ASD TOSCO-ROMAGNOLA 02:06:35.00 18,49 02:06:35.00
88 PINK PHILIP M JUN 1 CAVALLINO - SPECIALIZED 02:06:39.30 18,48 02:06:39.30
89 FABBRI DAVIDE M M3 16 ASD H3O RACE TEAM 02:06:52.70 18,44 02:06:52.70
90 CANTUCCI ALESSIO M ELMT 18 TEAM MONDOBICI TECNOPLAST 02:07:01.40 18,42 02:07:01.40
91 MACCAGLI ANDREA M ELMT 19 SAN MARINO RACE TEAM 02:07:25.50 18,36 02:07:25.50
92 BONFINI ROBERTO M M4 8 SAN MARINO RACE TEAM 02:07:44.80 18,32 02:07:44.80
93 LUCERTONI DAVID M M1 16 ASD BIKERS RACING TEAM 02:08:09.85 18,26 02:08:09.85
94 LEONI GERMANO M M5 5 TEAM PASSION FAENTINA 02:08:11.80 18,26 02:08:11.80
95 CASONI VALERIO M M5 6 ASD TEAM FAUSTO COPPI FERMIGNANO 02:08:20.40 18,23 02:08:20.40
96 GALLI MARIANO M M3 17 ASD POLISPORTIVA SANMAURESE NOB 02:08:20.50 18,23 02:08:20.50
97 SABATUCCI GIUSEPPE M M4 9 ASD BIKE PRO 02:08:20.90 18,23 02:08:20.90
98 UGOLINI ROBERTO M M3 18 ASD TEAM BIKE VALCONCA 02:08:21.10 18,23 02:08:21.10
99 RAIMONDI GIOVANNI FILIPPO M M3 19 ASD RAVEN TEAM 02:08:29.67 18,21 02:08:29.67
100 ROSSI ANDREA M M4 10 BARACCA LUGO CORSA MTB 02:08:33.50 18,20 02:08:33.50
101 PRINCIPI FILIPPO M M1 17 ASD ARES BIKE TEAM 02:08:33.70 18,20 02:08:33.70
102 TONVERONACHI FABIO M ELMT 20 ASD GS POPPI 02:08:37.75 18,19 02:08:37.75
103 SCARPETTI GIORGIO M M6 4 GS GEKO BIKE ASD 02:08:57.50 18,15 02:08:57.50
104 GIACOMONI MASSIMO M M4 11 ASD BLACK RIDERS 02:09:15.68 18,10 02:09:15.68
105 CATALANI MATTEO M M3 20 CRAZY BIKE CAMERANO 02:09:23.40 18,09 02:09:23.40
106 BENVENUTI MATTEO M M3 21 FREEDOM BIKE 02:09:23.68 18,09 02:09:23.68
107 LEONORI FRANCESCO M M2 23 ASD BICI ADVENTURE TEAM 02:09:32.59 18,06 02:09:32.59
108 CAVALLI ALVER M M3 22 ASD LE SALINE NATURA E SPORT 02:09:47.90 18,03 02:09:47.90
109 BIONDI MASSIMO M M5 7 TEAM MONDOBICI TECNOPLAST 02:09:51.01 18,02 02:09:51.01
110 FUSARI LEONARDO M M2 24 ASD VELOCIRAPTOR RIMINI 02:09:51.40 18,02 02:09:51.40
111 PINTI EMANUELE M M2 25 ASD RUOTA LIBERA MOIE 02:09:57.67 18,01 02:09:57.67
112 SARTI FILIPPO M M4 12 ASD SAMBI TEAM 02:10:03.00 17,99 02:10:03.00
113 GHIANDAI MAURIZIO M M6 5 TEAM SCOTT PASQUINI STELLA AZZURRA 02:10:03.93 17,99 02:10:03.93
114 PENTERICCI FRANCESCO M M2 26 ASD GIULIODORI RENZO BIKE CLUB CAFE´ 02:10:12.70 17,97 02:10:12.70
115 BACCI ALESSANDRO M M2 27 DONKEY BIKE CLUB SINALUNGA 02:10:21.43 17,95 02:10:21.43
116 GRILLI LUCA M M2 28 ASCD VALLE DEL CONCA 02:10:58.70 17,87 02:10:58.70
117 ANGELICCHIO GIUSEPPE M M3 23 ASD ONLYOFF DUE RUOTE 02:11:10.68 17,84 02:11:10.68
118 COSTANTINI FABRIZIO M M5 8 TEAM CINGOLANI - SPECIALIZED 02:11:11.90 17,84 02:11:11.90
119 TONINI MARCO M M2 29 BENESSERE E SPORT SSD A RL 02:11:12.90 17,84 02:11:12.90
120 NICOLINI MARCO M M1 18 TEAM ESSERE E MTBICIO 02:11:13.90 17,83 02:11:13.90
121 ACCARDI LUCIANO M ELMT 21 ASD FUORISOGLIA 02:11:18.65 17,82 02:11:18.65
122 ILARI ILARIO M M2 30 ASD PANARIA SABBATINI 02:11:19.00 17,82 02:11:19.00
123 VALENTINI GIORGIO M M2 31 TEAM MONDOBICI TECNOPLAST 02:11:20.68 17,82 02:11:20.68
124 PIAGNERELLI MATTEO M M2 32 TEAM CINGOLANI - SPECIALIZED 02:11:20.90 17,82 02:11:20.90
125 GIOMBETTI GIANCARLO M M4 13 TEAM CINGOLANI - SPECIALIZED 02:11:21.00 17,81 02:11:21.00
126 GUARNERI GIUSEPPE M M4 14 DONKEY BIKE CLUB SINALUNGA 02:11:22.90 17,81 02:11:22.90
127 BATTELLI SIMONE M M2 33 ASCD VALLE DEL CONCA 02:11:23.18 17,81 02:11:23.18
128 MARTINI GIAN CARLO M M3 24 BARACCA LUGO CORSA MTB 02:11:24.00 17,81 02:11:24.00
129 GOBBI STEFANO M M1 19 ASCD VALLE DEL CONCA 02:11:24.33 17,81 02:11:24.33
130 PETRUCCIOLI ARNALDO M M5 9 ASD GS POPPI 02:11:24.50 17,81 02:11:24.50
131 GAZZONI ALESSANDRO M M2 34 TEAM NOB JOLLYWEAR 02:11:27.00 17,80 02:11:27.00
132 SILVESTRI GIANCARLO M M5 10 TEAM BIKE LUNANO 02:11:27.90 17,80 02:11:27.90
133 ZANETTI GIANNI M M2 35 TEAM ZANETTI ASD 02:11:40.15 17,77 02:11:40.15
134 BORDONI PIETRO M M5 11 ASD POLISPORTIVA SANMAURESE NOB 02:12:09.35 17,71 02:12:09.35
135 CORINALDESI SIMONE M M2 36 ASD RUOTA LIBERA MOIE 02:12:21.40 17,68 02:12:21.40
136 ROSI OSCAR M M3 25 GS AVIS GUALDO TADINO 02:12:34.40 17,65 02:12:34.40
137 CAVALLINI RANIERO M M4 15 ASD RAVEN TEAM 02:12:34.80 17,65 02:12:34.80
138 AGNOLETTI PIERPAOLO M M6 6 ASCD VALLE DEL CONCA 02:12:34.94 17,65 02:12:34.94
139 RINALDI ANDREA M ELMT 22 GRUPPO TNT 02:12:39.40 17,64 02:12:39.40
140 GUERRA PAOLO M M5 12 A.S.D. BEST BIKE 02:12:41.60 17,64 02:12:41.60
141 GALLI LANFRANCO M M5 13 ASC CICLI CLEMENTI 02:12:57.10 17,60 02:12:57.10
142 PALANCA GIANLUCA M M4 16 SPACCO ASD 02:12:59.18 17,60 02:12:59.18
143 GIOVAGNOLI LUCA M M2 37 GC CARPEGNA AVIS ALTO MONTEFELTRO 02:13:03.10 17,59 02:13:03.10
144 MAURO EMANUELE M ELMT 23 TEAM PASSION FAENTINA 02:13:12.80 17,57 02:13:12.80
145 MENGOZZI ANDREA M ELMT 24 ASD LE SALINE NATURA E SPORT 02:13:18.68 17,55 02:13:18.68
146 MORRI MIRCO M M4 17 ASD LE SALINE NATURA E SPORT 02:13:19.60 17,55 02:13:19.60
147 ZAFFERANI MICHELE M M2 38 SAN MARINO MTB TEAM 02:13:27.10 17,53 02:13:27.10
148 RINGHINI MICHELE M ELMT 25 TEAM MONDOBICI TECNOPLAST 02:13:28.10 17,53 02:13:28.10
149 D´ANGELO SIMONE M ELMT 26 ASCD VALLE DEL CONCA 02:13:29.00 17,53 02:13:29.00
150 PIETANZA FRANCESCO M M5 14 GC CARPEGNA AVIS ALTO MONTEFELTRO 02:13:30.80 17,53 02:13:30.80
151 LEARDINI GABRIELE M ELMT 27 ASD SBUBBIKERS 02:13:40.50 17,51 02:13:40.50
152 BIZZARRI STEFANO M ELMT 28 TEAM CINGOLANI - SPECIALIZED 02:14:01.10 17,46 02:14:01.10
153 TELESCA FRANCESCO M JUN 2 GS BHOSS KING BIKE 02:14:01.20 17,46 02:14:01.20
154 SANTONI MATTEO M ELMT 29 ASD FUORISOGLIA 02:14:01.90 17,46 02:14:01.90
155 TERENZI ANDREA M OPEN 5 TORPADO FACTORY TEAM 02:14:02.11 17,46 02:14:02.11
156 CARBONI ANNIBALE M M5 15 GS CASTELTROSINO SUPERBIKE 02:14:02.19 17,46 02:14:02.19
157 RAVAIOLI MARCO M ELMT 30 GRUPPO TNT 02:14:02.44 17,46 02:14:02.44
158 COMMODI VALENTINO M ELMT 31 A.S.D. BEST BIKE 02:14:03.14 17,46 02:14:03.14
159 BALDAZZI ANDREA M M3 26 ASD BIKE INNOVATION SQUADRA CORSE 02:14:04.05 17,45 02:14:04.05
160 CAMPANA GIANNI M M5 16 UC PETRIGNANO 02:14:04.54 17,45 02:14:04.54
161 NORCINI ENRICO M M4 18 ASD GS POPPI 02:14:05.68 17,45 02:14:05.68
162 GIOSUE´ SAMUELE M M2 39 ASD STELLA BIKE 02:14:05.90 17,45 02:14:05.90
163 BORRONI WILLIAM M M4 19 ASD STELLA BIKE 02:14:06.90 17,45 02:14:06.90
164 LAMI FLAVIO M M6 7 SCORPION BIKE MTB 02:14:09.10 17,44 02:14:09.10
165 RENNA SABINO M M1 20 ASD GREEN DEVILS 02:14:10.40 17,44 02:14:10.40
166 FADINI FEDERICO M ELMT 32 CAVALLINO - SPECIALIZED 02:14:11.64 17,44 02:14:11.64
167 VERONESI DANIELA F DE 1 TEAM CINGOLANI - SPECIALIZED 02:14:14.08 17,43 02:14:14.08
168 SCALBI DANIELE M ELMT 33 TEAM BIKE LUNANO 02:14:22.70 17,42 02:14:22.70
169 BECCI MORENO M M7 1 GRUPPO TNT 02:14:29.70 17,40 02:14:29.70
170 CAPPELLONI DANILO M M1 21 TEAM BIKE LUNANO 02:14:30.40 17,40 02:14:30.40
171 TOZZI MATTIA M JUN 3 TEAM NOB SELLE ITALIA 02:14:43.20 17,37 02:14:43.20
172 TOSI MARCO M ELMT 34 TEAM PAGANI 02:14:43.20 17,37 02:14:43.20
173 VANUZZO IURI M M3 27 ASD SAMBI TEAM 02:14:43.60 17,37 02:14:43.60
174 COMMODI EDOARDO M M3 28 A.S.D. BEST BIKE 02:14:43.70 17,37 02:14:43.70
175 MARIOTTI FRANCESCO MARIO M M4 20 TEAM CINGOLANI - SPECIALIZED 02:14:45.10 17,37 02:14:45.10
176 SAVELLI CHRISTIAN M ELMT 35 TEAM CINGOLANI - SPECIALIZED 02:14:45.43 17,37 02:14:45.43
177 STEFANELLI DANIELA F MW1 1 TEAM CINGOLANI - SPECIALIZED 02:14:46.43 17,36 02:14:46.43
178 MAGALOTTI DAVIDE M M2 40 SPACCO ASD 02:15:01.00 17,33 02:15:01.00
179 CANTI ERIK M ELMT 36 TEAM PAGANI 02:15:14.60 17,30 02:15:14.60
180 GASPERONI STEFANO M M4 21 ASD BLACK ROAD 02:15:33.98 17,26 02:15:33.98
181 ORAZI ANDREA M M6 8 TEAM CINGOLANI - SPECIALIZED 02:15:52.68 17,22 02:15:52.68
182 PIANELLI EMANUELE M M2 41 TEAM CINGOLANI - SPECIALIZED 02:15:54.66 17,22 02:15:54.66
183 NUTI ALESSIO M M4 22 MTB RACE SUBBIANO 02:16:00.70 17,21 02:16:00.70
184 BALDUCCI GIORGIO M M5 17 TEAM BIKE LUNANO 02:16:11.18 17,18 02:16:11.18
185 ALTINI ANDREA M M2 42 KTM FORTI E LIBERI 02:16:28.20 17,15 02:16:28.20
186 BONAVITA ILARIO M M5 18 SPACCO ASD 02:16:30.70 17,14 02:16:30.70
187 PINK MATTEO M ELMT 37 CAVALLINO - SPECIALIZED 02:16:31.10 17,14 02:16:31.10
188 PERUGINI GIACOMO M M1 22 CICLI NERI TEAM 02:16:33.30 17,14 02:16:33.30
189 CRULLI ROBERTO M M4 23 TEAM SCOTT PASQUINI STELLA AZZURRA 02:17:12.93 17,06 02:17:12.93
190 GIACOMETTI FABIO M M3 29 ASD MISTERRBICI FABRIANO 02:17:13.43 17,05 02:17:13.43
191 BINI FABRIZIO M M1 23 GUSTATREVI MTB 02:17:29.98 17,02 02:17:29.98
192 ALESSANDRINI GUGLIELMO M M6 9 TEAM MONDOBICI TECNOPLAST 02:17:56.40 16,96 02:17:56.40
193 MORLINO CESARE M M3 30 MTB VALDICHIANA 02:18:01.90 16,95 02:18:01.90
194 VENTURI OTELLO M M5 19 TEAM MONDOBICI TECNOPLAST 02:18:27.37 16,90 02:18:27.37
195 PRUNI PAOLO M M4 24 KTM FORTI E LIBERI 02:18:27.81 16,90 02:18:27.81
196 RENZONI FRANCESCO M M3 31 DONKEY BIKE CLUB SINALUNGA 02:18:29.93 16,90 02:18:29.93
197 BAZZANI ROBERTO M M5 20 ASD GREEN DEVILS 02:18:37.11 16,88 02:18:37.11
198 CANCELLIERI MARCO M M5 21 TEAM CINGOLANI - SPECIALIZED 02:18:40.70 16,88 02:18:40.70
199 MAMBELLI MARINO M M6 10 ASD TEAM COMACO 02:18:53.67 16,85 02:18:53.67
200 SENSI ANDREA M ELMT 38 A.S.D. BEST BIKE 02:18:53.70 16,85 02:18:53.70
201 PEDROSI CRISTIAN M M3 32 ASD BLACK ROAD 02:18:54.00 16,85 02:18:54.00
202 IOVERNO FRANCESCO M M2 43 NUOVA CORTI TEAM BMC 02:18:54.70 16,85 02:18:54.70
203 CONTI MONIA F MW2 1 TEAM NOB JOLLYWEAR 02:18:55.10 16,84 02:18:55.10
204 FREGNANI SAURO M M3 33 BD FAST 02:19:00.00 16,83 02:19:00.00
205 CASTALDINI NICHOLAS M JUN 4 TMP RACING BIKE 02:19:07.53 16,82 02:19:07.53
206 BOLOGNA LUCA M M6 11 TEAM NOB JOLLYWEAR 02:19:08.90 16,82 02:19:08.90
207 D´ELIA GIACOMO M ELMT 39 TEAM PAGANI 02:19:13.10 16,81 02:19:13.10
208 ANTINORI MARCO M M3 34 SAN MARINO RACE TEAM 02:19:13.75 16,81 02:19:13.75
209 VANZINI RUDI M M2 44 ASCD VALLE DEL CONCA 02:19:17.70 16,80 02:19:17.70
210 GRESTI MICHELE M M1 24 ASD GIULIODORI RENZO BIKE CLUB CAFE´ 02:20:01.07 16,71 02:20:01.07
211 CASTELLARI VALERIO M M5 22 ASD LEONARDI RACING TEAM 02:20:15.43 16,68 02:20:15.43
212 VERDINI TOMMASO M M1 25 TEAM MONDOBICI TECNOPLAST 02:20:34.19 16,65 02:20:34.19
213 VIVI GIANLUCA M M3 35 CAVALLINO - SPECIALIZED 02:20:36.90 16,64 02:20:36.90
214 EUSEBI LORENZO M ELMT 40 ASD TEAM BIKE VALCONCA 02:20:37.20 16,64 02:20:37.20
215 ANDREOLI DANIELE M M2 45 TEAM CINGOLANI - SPECIALIZED 02:20:38.40 16,64 02:20:38.40
216 CECCARINI MATTEO M M2 46 GS CICLI MATTEONI BIANCHI 02:21:16.90 16,56 02:21:16.90
217 SILVANI ANDREA M M1 26 COMERO BIKE 02:21:17.93 16,56 02:21:17.93
218 SASDELLI MICHELE M M3 36 BAMBANA BIKE 02:21:18.20 16,56 02:21:18.20
219 PIOGGIA LUCA M M3 37 POL. YOUNG LINE 02:21:18.80 16,56 02:21:18.80
220 PREDIERI GIACOMO M M7 2 INDIVIDUALE 02:21:19.14 16,56 02:21:19.14
221 D´ANGELO SIMONE M OPEN 6 GS CASTELTROSINO SUPERBIKE 02:21:31.60 16,54 02:21:31.60
222 BALDASSARRI RICCARDO M M2 47 ASD GREEN DEVILS 02:21:35.57 16,53 02:21:35.57
223 ZACCARELLI GIUSEPPE M M3 38 TEAM PASSION FAENTINA 02:21:47.90 16,50 02:21:47.90
224 DAL PRATO MIRKO M M1 27 TEAM PASSION FAENTINA 02:21:48.18 16,50 02:21:48.18
225 MAMBELLI MARCO M M2 48 ASD OTW RAVENNA 02:21:52.10 16,49 02:21:52.10
226 BELLUCCI GIOVANNI M ELMT 41 AVIS PRATOVECCHIO-ERREPI-LEE COUGAN 02:22:04.90 16,47 02:22:04.90
227 BABINI GIOVANNI M M6 12 SC VELOCIRAPTOR 02:22:10.86 16,46 02:22:10.86
228 DONGIOVANNI GIUSEPPE M M5 23 GS CASTELTROSINO SUPERBIKE 02:22:12.18 16,46 02:22:12.18
229 BUCALA´ MANUELE M M1 28 AVIS BIKE CINGOLI 02:22:13.68 16,45 02:22:13.68
230 CAVIOLI DANIELE M M1 29 ASD LE SALINE NATURA E SPORT 02:22:16.13 16,45 02:22:16.13
231 TANCI ANDREA M M1 30 ASD GS POPPI 02:22:18.92 16,44 02:22:18.92
232 ACCIAI ANDREA M ELMT 42 AVIS PRATOVECCHIO-ERREPI-LEE COUGAN 02:22:19.17 16,44 02:22:19.17
233 DAMIANI MATTEO M M1 31 ASD CICLO DUCALE URBINO 02:22:21.70 16,44 02:22:21.70
234 BUGLI SAMUELE M M2 49 SAN MARINO RACE TEAM 02:22:31.70 16,42 02:22:31.70
235 CAVALETTI BRUNO M M3 39 GS SPORTISSIMO TOP LEVEL 02:22:33.98 16,42 02:22:33.98
236 CAMPIDELLI SAURO M M5 24 GS CICLI MATTEONI BIANCHI 02:22:36.70 16,41 02:22:36.70
237 ROMANDINI MASSIMO M M4 25 GS CASTELTROSINO SUPERBIKE 02:22:39.90 16,40 02:22:39.90
238 TALOZZI FEDERICO M M4 26 A.S.D. I MUFLONI RACING TEAM 02:22:50.30 16,38 02:22:50.30
239 RIGANELLI LUCA M M1 32 GC MATELICA 02:22:52.10 16,38 02:22:52.10
240 MASOTTI IURI M M1 33 TEAM PASSION FAENTINA 02:22:53.00 16,38 02:22:53.00
241 FABBRI FABIO M M5 25 180 BPM 02:22:54.40 16,38 02:22:54.40
242 ANTONELLI RICCARDO M M1 34 GC MATELICA 02:22:56.60 16,37 02:22:56.60
243 GREGORI DANIELE M M3 40 COMERO BIKE 02:22:58.60 16,37 02:22:58.60
244 GRAZIANI MARCO M M3 41 ASD GS POPPI 02:23:13.00 16,34 02:23:13.00
245 QUADRELLI PAOLO M M6 13 SAN MARINO RACE TEAM 02:23:27.80 16,31 02:23:27.80
246 DE SIMONE ALESSANDRO M M2 50 GOOD BIKE AS RONCOFREDDESE 02:23:31.57 16,30 02:23:31.57
247 SPITONI ANDREA M M2 51 ASD BICI ADVENTURE TEAM 02:23:38.67 16,29 02:23:38.67
248 CICOGNANI FABRIZIO M M1 35 180 BPM 02:23:41.00 16,29 02:23:41.00
249 BICHI GUIDO M M6 14 CAVALLINO - SPECIALIZED 02:23:59.19 16,25 02:23:59.19
250 PERONI SAMUELE M M4 27 TEAM CINGOLANI - SPECIALIZED 02:24:07.47 16,24 02:24:07.47
251 D´ALTRI LORIS M M5 26 MTB CESENA 02:24:12.18 16,23 02:24:12.18
252 MATINI MARCO M M1 36 ASD GS POPPI 02:24:12.20 16,23 02:24:12.20
253 MINIELLO LEO M M2 52 TEAM BIKE COCIF.COM ASD 02:24:16.40 16,22 02:24:16.40
254 PAUPINI FRANCESCO M M2 53 TEAM MONDOBICI TECNOPLAST 02:24:18.50 16,22 02:24:18.50
255 MAGRINI STEFANO M M6 15 TEAM PASSION FAENTINA 02:24:20.00 16,21 02:24:20.00
256 BERTI MICHELE M M3 42 MTB VALDICHIANA 02:24:24.00 16,20 02:24:24.00
257 MORICI MAURO M M4 28 AVIS BIKE CINGOLI 02:24:24.20 16,20 02:24:24.20
258 GAVANELLI LORENZO M M2 54 POL. YOUNG LINE 02:24:24.40 16,20 02:24:24.40
259 CAVINA GIAMBATTISTA M M5 27 ASD IMOLA BIKE 02:24:24.60 16,20 02:24:24.60
260 AMADEI CLAUDIO M M5 28 ASCD VALLE DEL CONCA 02:24:25.80 16,20 02:24:25.80
261 BORRI AURO M M3 43 TEAM CINGOLANI - SPECIALIZED 02:24:28.10 16,20 02:24:28.10
262 FINI EMANUELE M ELMT 43 ASCD VALLE DEL CONCA 02:24:31.40 16,19 02:24:31.40
263 MIGANI DENIS M M4 29 ASCD VALLE DEL CONCA 02:24:35.70 16,18 02:24:35.70
264 CASADEI MARCO M M4 30 ROWA TEAM 02:24:42.90 16,17 02:24:42.90
265 ASTOLFI OMAR M M3 44 ASD H3O RACE TEAM 02:24:52.90 16,15 02:24:52.90
266 CAMPANINI GIANNI M M6 16 CICLI NERI TEAM 02:24:54.67 16,15 02:24:54.67
267 ZAGHINI MARZIO M M2 55 SPACCO ASD 02:25:05.70 16,13 02:25:05.70
268 MARONI MICHELE M M2 56 GOOD BIKE AS RONCOFREDDESE 02:25:06.00 16,13 02:25:06.00
269 MEDRI FRANCESCO M M5 29 BARACCA LUGO CORSA MTB 02:25:20.60 16,10 02:25:20.60
270 SQUEO LEONARDO M OPEN 7 TEAM CINGOLANI - SPECIALIZED 02:25:23.20 16,10 02:25:23.20
271 MUCCINI FEDERICO M M4 31 ASD LE SALINE NATURA E SPORT 02:25:25.20 16,09 02:25:25.20
272 BACCI QUINTILIO M M4 32 ASD TEAM MATE´ 02:25:45.22 16,05 02:25:45.22
273 GIORGINI DAVID M M4 33 TEAM MONDOBICI TECNOPLAST 02:26:10.93 16,01 02:26:10.93
274 CASADEI LUCA M M1 37 ASD TEAM BIKE VALCONCA 02:26:13.90 16,00 02:26:13.90
275 NERI FABIO M M5 30 MARRADI BIKE 02:26:14.20 16,00 02:26:14.20
276 TORRONI ANDREA M M1 38 GOOD BIKE AS RONCOFREDDESE 02:26:34.60 15,97 02:26:34.60
277 PERINI DAVID M M4 34 ASD LE SALINE NATURA E SPORT 02:26:34.66 15,97 02:26:34.66
278 LIVERANI ALESSANDRO M M4 35 TEAM PASSION FAENTINA 02:26:52.00 15,93 02:26:52.00
279 ROSSETTI DIEGO M M2 57 AVIS BIKE CINGOLI 02:27:02.90 15,91 02:27:02.90
280 BURZACCA ANDREA M M6 17 GS TORPADO SURFING SHOP SPORT PROMOTION 02:27:04.69 15,91 02:27:04.69
281 GAMBELLA DAVID M M4 36 ASD BIKERS RACING TEAM 02:27:08.93 15,90 02:27:08.93
282 SUCCI MATTEO M ELMT 44 ASD LE SALINE NATURA E SPORT 02:27:18.80 15,89 02:27:18.80
283 MALATESTA GIANNI M M4 37 ASD GC AVIS SASSOFERRATO 02:27:19.20 15,88 02:27:19.20
284 NUTI MAURIZIO M M7 3 CAVALLINO - SPECIALIZED 02:27:37.57 15,85 02:27:37.57
285 GASTALDI ELISA F MW1 2 TEAM PASSION FAENTINA 02:27:43.44 15,84 02:27:43.44
286 CASTELLUCCI STEFANO M M4 38 180 BPM 02:27:56.63 15,82 02:27:56.63
287 LA GRECA SALVATORE M M2 58 ASDC VALLE DEL CONCA NORDIC WALKING 02:28:04.43 15,80 02:28:04.43
288 CIAMPINI CARLO M ELMT 45 ASD GS POPPI 02:28:05.78 15,80 02:28:05.78
289 SCORTECHINI FRANCESCO M M1 39 AVIS BIKE CINGOLI 02:28:07.68 15,80 02:28:07.68
290 MONTEBELLI CHRISTIAN M M2 59 GS CICLI MATTEONI BIANCHI 02:28:23.10 15,77 02:28:23.10
291 STAVOLA LUCA M M1 40 ASD POLISPORTIVA SANMAURESE NOB 02:28:31.75 15,76 02:28:31.75
292 CERIONI LORENZO M ELMT 46 ASD CICLI ROSSINI 02:29:11.67 15,69 02:29:11.67
293 LIUZZA LEONARDO M M1 41 UC PETRIGNANO 02:29:12.60 15,68 02:29:12.60
294 GENTILI FABIO M ELMT 47 GS CASTELTROSINO SUPERBIKE 02:29:19.10 15,67 02:29:19.10
295 GALLI MARINO M ELMT 48 GS CASTELTROSINO SUPERBIKE 02:29:20.17 15,67 02:29:20.17
296 LUSINI STEFANO M M4 39 ASD GS POPPI 02:29:27.60 15,66 02:29:27.60
297 GROSSI SIMONE M M2 60 ASD TEAM BIKE VALCONCA 02:29:30.60 15,65 02:29:30.60
298 MANGIALARDO VINICIO M M3 45 FALCO RACING 02:29:48.70 15,62 02:29:48.70
299 PIANGATELLI FEDERICO M M3 46 ASD GIULIODORI RENZO BIKE CLUB CAFE´ 02:29:49.90 15,62 02:29:49.90
300 GIORGI AURELIANO M M3 47 AVIS BIKE CINGOLI 02:29:50.50 15,62 02:29:50.50
301 PERUZZI FRANCESCO M M1 42 ASD CESENA BIKE 02:29:53.18 15,61 02:29:53.18
302 PETRUCCIOLI MONICA F MW1 3 ASD GS POPPI 02:30:05.01 15,59 02:30:05.01
303 ANCARANI ALESSIO M M1 43 TEAM PASSION FAENTINA 02:30:06.02 15,59 02:30:06.02
304 MACCHEROZZI MARTA F MW2 2 GRUPPO TNT 02:30:13.00 15,58 02:30:13.00
305 PARA MASSIMO M M5 31 COMERO BIKE 02:30:16.40 15,57 02:30:16.40
306 PODESCHI ROBERTO M M4 40 SAN MARINO RACE TEAM 02:30:24.90 15,56 02:30:24.90
307 MURATORI GIAMPAOLO M M4 41 GRUPPO TNT 02:30:33.30 15,54 02:30:33.30
308 ARRAIS FEDERICO M M2 61 STEELSBIKES 02:31:00.43 15,50 02:31:00.43
309 BISSIONI LORENZO M M7 4 TEAM TORPEDO BIKE 02:31:02.20 15,49 02:31:02.20
310 BELARDINELLI RODOLFO M M4 42 TEAM MONDOBICI TECNOPLAST 02:31:26.40 15,45 02:31:26.40
311 MONDUZZI MORENO M M5 32 ASD SACMI 02:31:41.34 15,43 02:31:41.34
312 SALOMONI FILIPPO M ELMT 49 MTB CESENA 02:31:41.77 15,43 02:31:41.77
313 SBARBATI MATTEO M M1 44 CLUB AMICI DELLA BICI SENIGALLIA 02:31:50.87 15,41 02:31:50.87
314 GAVAGNI REMO M M5 33 CAVALLINO - SPECIALIZED 02:32:00.68 15,39 02:32:00.68
315 SUCCI ALESSANDRO M ELMT 50 ASD LE SALINE NATURA E SPORT 02:32:05.80 15,39 02:32:05.80
316 BARTOLINI STEFANO M M4 43 ASD TEAM BIKE VALCONCA 02:32:07.00 15,38 02:32:07.00
317 GUERRINI EMANUELE M M2 62 TEAM ZANETTI ASD 02:32:17.10 15,37 02:32:17.10
318 FOSCOLI LUCA M ELMT 51 ASD TEAM BIKE VALCONCA 02:32:17.68 15,37 02:32:17.68
319 PELLEGRINI FABIO M M1 45 GOOD BIKE AS RONCOFREDDESE 02:32:29.93 15,35 02:32:29.93
320 PIANOSI MARCELLO M M5 34 ASD CESENA BIKE 02:32:33.40 15,34 02:32:33.40
321 NICOLINI GIORGIO M M1 46 ASD VALMARACING TEAM 02:32:48.40 15,31 02:32:48.40
322 GRAZIANI NICOLA M M3 48 ASD BIKE INNOVATION SQUADRA CORSE 02:32:54.55 15,30 02:32:54.55
323 BRIZZI GIULIANO M M4 44 ASD VALMARACING TEAM 02:32:55.36 15,30 02:32:55.36
324 GIOVAGNOLI FABIO M ELMT 52 GC CARPEGNA AVIS ALTO MONTEFELTRO 02:33:03.17 15,29 02:33:03.17
325 CESARINI FRANCESCO M M4 45 ASD SBUBBIKERS 02:33:05.90 15,29 02:33:05.90
326 CONSANI MATTEO M ELMT 53 GS BULGARNO´ BIKE 2008 02:33:32.80 15,24 02:33:32.80
327 FRESCHI ALESSANDRO M ELMT 54 GRUPPO TNT 02:33:37.90 15,23 02:33:37.90
328 GESSI ANDREA M M3 49 RABITI DURI 02:33:41.10 15,23 02:33:41.10
329 VENTURI MARIO M M5 35 TEAM SCOTT PASQUINI STELLA AZZURRA 02:33:42.41 15,22 02:33:42.41
330 BALDETTI EMANUELE M M4 46 ASD RUOTA LIBERA MOIE 02:33:57.10 15,20 02:33:57.10
331 SANTARELLI MATTEO M ELMT 55 RABITI DURI 02:33:59.40 15,20 02:33:59.40
332 TARABELLI EROS M ELMT 56 ASD GIULIODORI RENZO BIKE CLUB CAFE´ 02:33:59.60 15,20 02:33:59.60
333 MANCINI MATTIA M ELMT 57 ASD VALMARACING TEAM 02:33:59.80 15,20 02:33:59.80
334 BARTOLINI VALERIA F MW2 3 TEAM TORPEDO BIKE 02:34:02.40 15,19 02:34:02.40
335 VALLICELLI MIRKO M M2 63 TEAM PASSION FAENTINA 02:34:08.60 15,18 02:34:08.60
336 CRUSCANTI LEONELLO M M4 47 DONKEY BIKE CLUB SINALUNGA 02:34:15.46 15,17 02:34:15.46
337 ROSELLI MICHELE M M3 50 ASD I BROMBO 02:34:21.67 15,16 02:34:21.67
338 AMADASI ENRICO M M7 5 BAMBANA BIKE 02:34:43.86 15,12 02:34:43.86
339 GENTILETTI LUCA M M2 64 FREEDOM BIKE 02:34:43.86 15,12 02:34:43.86
340 PELONI SANDRO M M2 65 AVIS BIKE CINGOLI 02:35:02.80 15,09 02:35:02.80
341 AGNOLETTI MARIO M M3 51 UISP RAVENNA 02:35:13.18 15,08 02:35:13.18
342 BRUSCIOTTI MARCO M M5 36 VILLA ROSA BIKE 02:35:27.60 15,05 02:35:27.60
343 TRONI MASSIMO M M4 48 ASD LE SALINE NATURA E SPORT 02:35:35.17 15,04 02:35:35.17
344 GORRIERI RICCARDO M M4 49 ASD VALMARACING TEAM 02:35:51.10 15,01 02:35:51.10
345 EUSEBI MAURO M M6 18 ASD TEAM BIKE VALCONCA 02:36:06.30 14,99 02:36:06.30
346 MAZZINI MARCO M M4 50 BAMBANA BIKE 02:36:15.60 14,98 02:36:15.60
347 PIRAZZOLI FILIPPO M ELMT 58 ASD GREEN DEVILS 02:36:22.70 14,96 02:36:22.70
348 MANCINI UGO M M6 19 SC PARLESCA RACING BIKES PG 02:36:38.40 14,94 02:36:38.40
349 CHIARABINI DENIS M M2 66 ROWA TEAM 02:36:39.10 14,94 02:36:39.10
350 BIANCHI MATTIA M M2 67 HOBBY BIKE CLUB MTB 02:36:53.60 14,92 02:36:53.60
351 MACCAGLI GIULIANO M M5 37 SAN MARINO RACE TEAM 02:37:00.90 14,90 02:37:00.90
352 GALLINUCCI ALESSANDRO M ELMT 59 VENTURI ADVENTURE TEAM 02:37:12.68 14,89 02:37:12.68
353 SAMPAOLI GIMMI M M2 68 COMERO BIKE 02:37:13.20 14,88 02:37:13.20
354 SALVATORI MARTA F MW1 4 ASD BIKERS RACING TEAM 02:37:21.40 14,87 02:37:21.40
355 PRUCCOLI ANDREA M JUN 5 ASD LE SALINE NATURA E SPORT 02:37:22.90 14,87 02:37:22.90
356 BINDI ALDO M M4 51 CICLO CLUB QUOTA MILLE 02:37:34.41 14,85 02:37:34.41
357 RAGGINI ROBERTO M M5 38 SCORPION BIKE MTB 02:37:41.60 14,84 02:37:41.60
358 ALUIGI OSVALDO M M3 52 ASD FULLBIKE 02:37:48.90 14,83 02:37:48.90
359 FABIANI FABIO M M4 52 SPACCO ASD 02:37:57.90 14,81 02:37:57.90
360 CORZANI ALESSANDRO M M4 53 AS TARTANA BIKE 02:38:23.60 14,77 02:38:23.60
361 MATTIOLI LUCA M M3 53 ASD BLACK RIDERS 02:38:54.90 14,73 02:38:49.50
362 MIGIANI AGOSTINO M M4 54 TEAM BIKE LUNANO 02:39:12.20 14,70 02:39:12.20
363 DEL BOLGIA MIRKO M M3 54 TEAM SCOTT PASQUINI STELLA AZZURRA 02:39:12.40 14,70 02:39:12.40
364 RIGHETTI PIETRO M M6 20 BAMBANA BIKE 02:39:19.40 14,69 02:39:19.40
365 ZAMAGNA MASSIMO M M6 21 ASD PEDALE SAMMAURESE 02:39:21.69 14,68 02:39:21.69
366 PIANTANELLI DANIELE M M1 47 TEAM CINGOLANI - SPECIALIZED 02:39:28.99 14,67 02:39:28.99
367 CECCARONI MATTEO M M3 55 GS CICLI MATTEONI BIANCHI 02:39:30.68 14,67 02:39:30.68
368 ARLOTTI MAURIZIO M M5 39 TEAM TORPEDO BIKE 02:39:35.40 14,66 02:39:35.40
369 COLOMBO ROBERTO M M5 40 BARACCA LUGO CORSA MTB 02:39:54.40 14,63 02:39:54.40
370 BARTOLINI MARCO M M2 69 MTB Y2K PORTO RECANATI 02:39:56.90 14,63 02:39:56.90
371 BIANCHI VALERIANO M M4 55 SAN MARINO MTB TEAM 02:40:04.42 14,62 02:40:04.42
372 MAZZI MASSIMO M M7 6 CAVALLINO - SPECIALIZED 02:40:23.10 14,59 02:40:23.10
373 ROSSI MICHELE M M4 56 ASD FALCO RACING 02:40:28.41 14,58 02:40:28.41
374 GIORGI LUIGI M M4 57 ASD LE SALINE NATURA E SPORT 02:40:30.85 14,58 02:40:30.85
375 TOBALDI FABRIZIO M M6 22 AVIS BIKE CINGOLI 02:40:32.90 14,58 02:40:32.90
376 MINISGALLO GIOVANNI M M6 23 AVIS PRATOVECCHIO-ERREPI-LEE COUGAN 02:40:40.70 14,56 02:40:40.70
377 BARBERINI STEFANO M M3 56 ASD MEDINOX 02:40:42.81 14,56 02:40:42.81
378 BINI LUCA M M3 57 AVIS BIKE CINGOLI 02:41:07.35 14,52 02:41:07.35
379 TEODORANI MICHELE M M2 70 GS BULGARNO´ BIKE 2008 02:41:21.00 14,50 02:41:21.00
380 BARTOLINI MICHELE M ELMT 60 TEAM PAGANI 02:41:25.90 14,50 02:41:25.90
381 DE SANTIS DARIO M M5 41 GS CASTELTROSINO SUPERBIKE 02:41:29.20 14,49 02:41:29.20
382 PADIGLIONI FEDERICO M M2 71 FREE BIKE MARSCIANO 02:41:39.50 14,48 02:41:39.50
383 BOVI ALESSIO M M2 72 ASD VALMARACING TEAM 02:41:43.90 14,47 02:41:43.90
384 MAINARDI ROBERTO M M6 24 ASD LE SALINE NATURA E SPORT 02:42:09.70 14,43 02:42:09.70
385 MANFREDI GRAZIANO M M5 42 CICLI NERI TEAM 02:42:10.90 14,43 02:42:10.90
386 GIULIANELLI MARIO M M7 7 TEAM MONDOBICI TECNOPLAST 02:42:40.75 14,39 02:42:40.75
387 BELLAGAMBA MATTIA M M2 73 LEPRI DI ROMAGNA 02:42:51.30 14,37 02:42:51.30
388 TONELLI ROBERTO M M7 8 COMERO BIKE 02:43:15.40 14,33 02:43:15.40
389 GIORGINI MAURIZIO M M6 25 TEAM CINGOLANI - SPECIALIZED 02:43:21.90 14,33 02:43:21.90
390 CREMONINI ANDREA M M2 74 ASD TEAM INBICI 02:43:25.01 14,32 02:43:25.01
391 CROCCHI SIMONE M M4 58 CAVALLINO - SPECIALIZED 02:43:27.00 14,32 02:43:27.00
392 GALASSO ANGELO M M5 43 ASD RUOTA LIBERA MOIE 02:43:33.40 14,31 02:43:33.40
393 DI MATTEO FRANCESCO M M2 75 ASD I BROMBO 02:43:33.60 14,31 02:43:33.60
394 PACASSONI LUCA M M4 59 ASD LE SALINE NATURA E SPORT 02:43:35.26 14,30 02:43:35.26
395 VALLESE GIANLUCA M M2 76 ASD BIKE PRO 02:43:36.10 14,30 02:43:36.10
396 GUIDUCCI MATTEO M ELMT 61 TEAM CINGOLANI - SPECIALIZED 02:43:40.87 14,30 02:43:40.87
397 BERARDUCCI DANIELE M M5 44 ASD LE SALINE NATURA E SPORT 02:43:42.00 14,29 02:43:42.00
398 VENTURI GIOVANNI M M5 45 TEAM BIKE LUNANO 02:43:46.35 14,29 02:43:46.35
399 RIDOLFINI ANDREA M M2 77 TEAM BIKE LUNANO 02:43:46.68 14,29 02:43:46.68
400 BATTAGLIA FRANCESCO M M3 58 FREEDOM BIKE 02:44:01.74 14,27 02:44:01.74
401 FABBRI ANDREA M M4 60 ASD CESENA BIKE 02:44:11.60 14,25 02:44:11.60
402 GAVIANI FILIPPO M M1 48 BAD SKULL ASD 02:44:11.90 14,25 02:44:11.90
403 GIOVANNINI ZEFFERINO M M7 9 A.S.D. I MUFLONI RACING TEAM 02:44:13.40 14,25 02:44:13.40
404 VIVENTI PAOLO M M1 49 A.S.D. BEST BIKE 02:44:16.90 14,25 02:44:16.90
405 OPPIDI ALESSANDRO M M7 10 ASD GREEN DEVILS 02:44:19.90 14,24 02:44:19.90
406 VITTORI MARCO M M1 50 ASD ROYAL BIKE 02:44:20.18 14,24 02:44:20.18
407 NANNI LUCA M ELMT 62 HOBBY BIKE CLUB MTB 02:44:25.60 14,23 02:44:25.60
408 CECCHETTI MARCO M M1 51 INDIVIDUALE 02:44:32.38 14,22 02:44:32.38
409 SIROTTI MATTEO M M3 59 VENTURI ADVENTURE TEAM 02:44:47.40 14,20 02:44:47.40
410 CURLO FABRIZIO M ELMT 63 TEAM PAGANI 02:44:49.20 14,20 02:44:49.20
411 CUCCHI GIANLUCA M M3 60 PROBIKERS 02:45:37.60 14,13 02:45:37.60
412 VANNINI TIZIANO M M2 78 ASD GS POPPI 02:46:14.17 14,08 02:46:14.17
413 ALESSANDRINI DANIELE M M4 61 TEAM CINGOLANI - SPECIALIZED 02:46:23.40 14,06 02:46:23.40
414 CIMINI MARCO M M2 79 ASD TEAM BIKE VALCONCA 02:46:24.40 14,06 02:46:24.40
415 FIAMMENGHI FLAMIGNI ALBERTO M M3 61 AS TARTANA BIKE 02:46:43.80 14,04 02:46:43.80
416 ROMANI OLFER M M4 62 TEAM MONDOBICI TECNOPLAST 02:46:55.10 14,02 02:46:55.10
417 GALLI LAURA F MW2 4 TEAM MONDOBICI TECNOPLAST 02:46:55.90 14,02 02:46:55.90
418 MAZZOTTI FILIPPO M M1 52 ROWA TEAM 02:47:08.40 14,00 02:47:08.40
419 RUTIGLIANO GIOVANNI M M6 26 ASD SBUBBIKERS 02:47:09.10 14,00 02:47:09.10
420 FAGGIOLINI CRISTIAN M M3 62 AS TARTANA BIKE 02:47:24.25 13,98 02:47:24.25
421 GASPARI EMILIO M M3 63 GS CASTELTROSINO SUPERBIKE 02:47:30.60 13,97 02:47:30.60
422 SANCHEZ TORQUATI RODRIGO JAVIER M M2 80 GS CASTELTROSINO SUPERBIKE 02:47:31.60 13,97 02:47:31.60
423 SENSINI MONIA F MW1 5 ASD MEDINOX 02:47:33.60 13,97 02:47:33.60
424 BIANCHETTI GIANFRANCO M M7 11 TEAM CINGOLANI - SPECIALIZED 02:47:33.90 13,97 02:47:33.90
425 BUDA GIANNI M M5 46 ASD MEDINOX 02:47:34.10 13,96 02:47:34.10
426 SPAGHETTI LUCIANO M M5 47 TEAM CINGOLANI - SPECIALIZED 02:47:39.30 13,96 02:47:39.30
427 AMADUZZI GRAZIANO M M6 27 ASD SBUBBIKERS 02:47:47.68 13,95 02:47:47.68
428 BARTOLONI GIANNI M M5 48 SAN MARINO MTB TEAM 02:48:26.01 13,89 02:48:26.01
429 MARCELLI FAUSTO M M5 49 CAVALLINO - SPECIALIZED 02:48:27.90 13,89 02:48:27.90
430 ZAMPOLINI MARCELLO M CT 1 INDIVIDUALE 02:48:28.40 13,89 02:48:28.40
431 D´ORTENZI ANDREA M M4 63 MTB ADRENALINA TEAM 02:48:32.10 13,88 02:48:32.10
432 FANTINI FABIO M M2 81 ASCD VALLE DEL CONCA 02:48:33.92 13,88 02:48:33.92
433 GIORDANI LUIGINO M M4 64 FIRST LOVE MATELICA 02:49:00.40 13,85 02:49:00.40
434 BARTOLINI MIRKO M M2 82 GOOD BIKE AS RONCOFREDDESE 02:49:11.70 13,83 02:49:11.70
435 STELLA FABRIZIO M M4 65 ASD FUORISOGLIA 02:49:23.50 13,81 02:49:23.50
436 TAFURO FRANCESCO M M5 50 ASD GREEN DEVILS 02:49:41.42 13,79 02:49:41.42
437 PLACENTINO ANTONIO M M4 66 ASD FALCO RACING 02:49:48.40 13,78 02:49:48.40
438 PARENTELLI NICOLA M ELMT 64 GS BULGARNO´ BIKE 2008 02:49:58.90 13,77 02:49:58.90
439 PRATI CARLO M M3 64 MTB CESENA 02:49:59.40 13,77 02:49:59.40
440 MORIGI MATTEO M M1 53 TEAM TORPEDO BIKE 02:50:07.18 13,76 02:50:07.18
441 BERNABINI FILIPPO M CT 2 COMERO BIKE 02:50:40.90 13,71 02:50:40.90
442 ACCIAI MAURIZIO M M6 28 GRUPPO TNT 02:50:58.60 13,69 02:50:58.60
443 MAZZOLI STEFANO M M4 67 ASD LE SALINE NATURA E SPORT 02:50:58.60 13,69 02:50:58.60
444 CARLI FLAVIO M M4 68 ASD POLISPORTIVA SANMAURESE NOB 02:51:09.67 13,67 02:51:09.67
445 VANNINI MORENO M M3 65 ASD POLISPORTIVA SANMAURESE NOB 02:51:09.80 13,67 02:51:09.80
446 FERRI MAURO M M7 12 BAMBANA BIKE 02:51:32.93 13,64 02:51:32.93
447 FRANCI CLAUDIO M M5 51 AVIS PRATOVECCHIO-ERREPI-LEE COUGAN 02:51:45.92 13,62 02:51:45.92
448 FABBRICA ANDREA M M1 54 SPACCO ASD 02:52:01.49 13,60 02:52:01.49
449 BARTALUCCI FAUSTO M M7 13 TEAM SCOTT PASQUINI STELLA AZZURRA 02:52:09.10 13,59 02:52:09.10
450 TOSI SIMONE M M2 83 HOBBY BIKE CLUB MTB 02:52:11.60 13,59 02:52:11.60
451 MUCCIOLI MIRKO M M2 84 SAN MARINO MTB TEAM 02:52:12.68 13,59 02:52:12.68
452 TEDESCHI MIRCO M M2 85 GUSTATREVI MTB 02:52:21.20 13,58 02:52:21.20
453 BURATTI ROBERTA F MW2 5 ASD MEDINOX 02:52:22.69 13,58 02:52:22.69
454 DURANTI ALESSANDRO M CT 3 ASD CICLO DUCALE URBINO 02:52:32.40 13,56 02:52:32.40
455 IACCHINI DARIO M M3 66 TEAM BOTA CESENATICO 02:53:13.10 13,51 02:53:13.10
456 MASSARI MATTIA M ELMT 65 ASD MEDINOX 02:53:31.80 13,49 02:53:31.80
457 STORELLI DOMENICO PIER PAOLO M M2 86 ASD SBUBBIKERS 02:53:35.09 13,48 02:53:35.09
458 AQUINO CASTANEDA OMAR VICENTE M M2 87 BHS TEAM ASD 02:53:36.67 13,48 02:53:36.67
459 BALDUCCI FABIO M M3 67 SAN MARINO MTB TEAM 02:53:49.60 13,46 02:53:49.60
460 GIOVAGNOLI ANTIMO M M6 29 GC CARPEGNA AVIS ALTO MONTEFELTRO 02:54:05.10 13,44 02:54:05.10
461 MANCINI FABIO M M2 88 GS FREE BIKE A.S.D. BELLARIA-IGEA MARINA 02:54:08.60 13,44 02:54:08.60
462 SEMPRINI GABRIELE M M1 55 ASD SBUBBIKERS 02:54:28.83 13,41 02:54:28.83
463 BORGHESI FRANCESCO M M4 69 ASD SBUBBIKERS 02:54:36.90 13,40 02:54:36.90
464 BARTOZZI FRANCESCO M M3 68 ASD BLACK RIDERS 02:54:37.10 13,40 02:54:27.27
465 MICCI LUCIANO M M6 30 CLUB AMICI DELLA BICI SENIGALLIA 02:54:59.66 13,37 02:54:59.66
466 LAMASSA GIOVAN GIACOMO M M1 56 AVIS BIKE CINGOLI 02:55:05.90 13,37 02:55:05.90
467 SURIANO ALESSANDRO M M1 57 MTB TURBOLENTI 02:55:11.83 13,36 02:55:11.83
468 PICCHI STEFANO M M5 52 ASD LE SALINE NATURA E SPORT 02:55:13.60 13,35 02:55:13.60
469 MANUZZI MIRCO M ELMT 66 GOOD BIKE AS RONCOFREDDESE 02:55:22.10 13,34 02:55:22.10
470 BIASOLI GUIDO M CT 4 TEAM FERRARA BIKE 02:55:25.62 13,34 02:55:25.62
471 MONALDI DANIELE M M3 69 SAN MARINO RACE TEAM 02:55:28.40 13,34 02:55:28.40
472 DE ROSSI STEFANO M ELMT 67 TEAM PAGANI 02:55:58.27 13,30 02:55:58.27
473 PETRUCCI MASSIMILIANO M M3 70 TEAM CINGOLANI - SPECIALIZED 02:56:01.90 13,29 02:56:01.90
474 PEDRELLI THOMAS M ELMT 68 TEAM BOTA CESENATICO 02:56:07.10 13,29 02:56:07.10
475 MAGNAPANE LUCA M M5 53 ASD TORMATIC PEDALE SETTEMPEDANO 02:56:14.20 13,28 02:56:14.20
476 PALMIERI ALESSANDRO M M1 59 AVIS BIKE CINGOLI 02:56:14.90 13,28 02:56:14.90
477 VERDICCHIO ANDREA M M1 58 ASD BIKERS RACING TEAM 02:56:14.90 13,28 02:56:14.90
478 BIANCHINI PAOLO M M5 54 GOOD BIKE AS RONCOFREDDESE 02:56:33.15 13,25 02:56:33.15
479 CALZUOLA CRISTIAN M M1 60 A.S.D. BEST BIKE 02:56:34.77 13,25 02:56:34.77
480 PALMIERI NAZARENO M M7 14 ASD BIKERS RACING TEAM 02:56:40.60 13,25 02:56:40.60
481 CECCOLI TONINO M M6 31 SAN MARINO RACE TEAM 02:57:01.93 13,22 02:57:01.93
482 NOVELLI MIRCO M M2 89 ASD VALMARACING TEAM 02:57:34.90 13,18 02:57:34.90
483 BOLLINI ALESSANDRO M M2 90 TEAM COSMOS 02:58:00.93 13,15 02:58:00.93
484 LESSI GIANNI M M3 71 TEAM BIKE COCIF.COM ASD 02:58:06.30 13,14 02:58:06.30
485 MORDENTI FERNANDO M M6 32 ASD TEAM COMACO 02:58:06.67 13,14 02:58:06.67
486 FABBRI MAURO M M4 70 TEAM BIKE COCIF.COM ASD 02:58:06.90 13,14 02:58:06.90
487 BINI GIANLUCA M M5 55 ASD GREEN DEVILS 02:58:07.10 13,14 02:58:07.10
488 ABBRUCIATI LUCA M M5 56 TEAM CINGOLANI - SPECIALIZED 02:58:41.43 13,10 02:58:41.43
489 BONACORSI ANDREA M M4 71 TEAM MONDOBICI TECNOPLAST 02:58:47.17 13,09 02:58:47.17
490 CIMMINO ROBERTO M M3 72 ASDC VALLE DEL CONCA NORDIC WALKING 02:59:25.20 13,04 02:59:25.20
491 CALISESI ROBERTO M M5 57 SPACCO ASD 03:00:18.68 12,98 02:56:56.58
492 MARCHETTI MASSIMO M M4 72 AVIS PRATOVECCHIO-ERREPI-LEE COUGAN 03:00:30.24 12,96 03:00:30.24
493 CASTALDINI ROBERTO M M3 73 IEMA MTB TEAM 03:00:39.90 12,95 03:00:39.90
494 GUIDUZZI FRANCESCO M M2 91 ASD GREEN DEVILS 03:00:40.40 12,95 03:00:40.40
495 LUCCHI MASSIMO M M5 58 GS TORPADO SURFING SHOP SPORT PROMOTION 03:00:54.16 12,94 03:00:54.16
496 CANAREZZA NICOLA M M2 92 SAN MARINO RACE TEAM 03:01:10.30 12,92 03:01:10.30
497 GRANDI ENRICO M M3 74 TEAM MONDOBICI TECNOPLAST 03:01:34.10 12,89 03:01:34.10
498 MORRI MARCO M M3 75 ASD SBUBBIKERS 03:01:40.80 12,88 03:01:40.80
499 COLASUONNO VINCENZO M M4 73 ASD SAMBI TEAM 03:02:27.10 12,83 03:02:27.10
500 SILVESTRI LORIS M CT 5 GS CICLI MATTEONI BIANCHI 03:03:19.80 12,76 03:03:15.60
501 GARUFFI PAOLO M M6 33 ASD SBUBBIKERS 03:03:20.17 12,76 03:03:20.17
502 MAGNANI JACOPO M ELMT 69 GC MATELICA 03:03:31.00 12,75 03:03:31.00
503 GOLFERA FABRIZIO M M6 34 TEAM PASSION FAENTINA 03:03:33.30 12,75 03:03:33.30
504 MURARO ANDREA M M5 59 SAN MARINO MTB TEAM 03:03:36.40 12,75 03:03:36.40
505 ZANCHINI LORIS M M5 60 ASD TEAM COMACO 03:03:36.60 12,75 03:03:36.60
506 GAGLIARDINI GIACOMO M M2 93 TEAM CINGOLANI - SPECIALIZED 03:03:38.30 12,74 03:03:38.30
507 MARTINELLI RUBEN M M7 15 INDIVIDUALE 03:03:43.20 12,74 03:03:43.20
508 CLEMENTI PAOLO M M5 61 ASD SBUBBIKERS 03:03:50.00 12,73 03:03:50.00
509 TORCIANTI MARCO M M2 94 FALCO RACING 03:03:50.30 12,73 03:03:50.30
510 FUSINI ANNA RITA F MW2 6 ROWA TEAM 03:03:51.10 12,73 03:03:51.10
511 TOSI MASSIMO M M6 35 ASD SBUBBIKERS 03:03:51.42 12,73 03:03:51.42
512 CHILLO TANIA F MW2 7 ASD ONLYOFF DUE RUOTE 03:04:18.50 12,70 03:04:18.50
513 BROLLI ALBERTO M ELMT 70 TEAM PAGANI 03:04:22.60 12,69 03:04:22.60
514 MARCHETTI SONIA F MW1 6 CRAZY BIKE CAMERANO 03:04:26.60 12,69 03:04:26.60
515 CORINALDESI CLAUDIO M M4 74 FALCO RACING 03:04:27.40 12,69 03:04:27.40
516 TORSANI FABIO M M5 62 SAN MARINO MTB TEAM 03:05:22.18 12,62 03:05:22.18
517 BUZZI CLAUDIA F MW2 8 GS CELLA 03:05:55.80 12,59 03:05:55.80
518 BRANDI CRISTIAN M M1 61 TEAM BIKE LUNANO 03:06:28.78 12,55 03:06:28.78
519 DOLCI LUCA M M1 62 ASD LE SALINE NATURA E SPORT 03:06:30.30 12,55 03:06:30.30
520 ZAMAGNI MATTIA M ELMT 71 ASD CESENA BIKE 03:06:47.03 12,53 03:06:47.03
521 BASTIANELLI MATTEO M ELMT 72 360 BIKE TEAM 03:06:47.10 12,53 03:06:47.10
522 SCHWIBBERT ANDREA M M1 63 ASD CESENA BIKE 03:07:30.30 12,48 03:07:30.30
523 BORGIA ANTONELLO M M6 36 GC CARPEGNA AVIS ALTO MONTEFELTRO 03:07:33.06 12,48 03:07:33.06
524 BRUNETTI MASSIMILIANO M M4 75 GS AVIS GUALDO TADINO 03:07:47.67 12,46 03:07:47.67
525 QUERZOLA FRANCESCA F MW1 7 ASD IMOLA BIKE 03:07:47.67 12,46 03:07:47.67
526 CALBI PAOLA F MW2 9 ASD CESENA BIKE 03:07:56.25 12,45 03:07:56.25
527 BELLUZZI DANIELE M CT 6 NOT ONLY BIKE 03:08:32.69 12,41 03:08:28.28
528 MIGANI MANUEL M M2 95 ASD H3O RACE TEAM 03:08:57.70 12,38 03:08:57.70
529 VENTURA GIUSEPPE M M3 76 GS CASTELTROSINO SUPERBIKE 03:09:34.60 12,34 03:09:34.60
530 MONETA RICCARDO M M1 64 GC MATELICA 03:09:41.70 12,34 03:09:41.70
531 CALVANO DAVIDE M CT 7 CICLI NERI TEAM 03:09:42.10 12,34 03:09:42.10
532 EUSEPI MARCO M M7 16 FREEDOM BIKE 03:09:42.17 12,34 03:09:40.17
533 SPADONI GIORGIO M M3 77 AVIS BIKE CINGOLI 03:10:27.10 12,29 03:10:27.10
534 MONTESI FRANCESCO M M2 96 TEAM BIKE COCIF.COM ASD 03:11:06.90 12,24 03:11:06.90
535 BERARDINELLI MATTEO M M1 65 TEAM CINGOLANI - SPECIALIZED 03:12:16.30 12,17 03:12:16.30
536 MAVILLA PAOLO M M6 37 TEAM PASSION FAENTINA 03:12:34.18 12,15 03:12:34.18
537 CAPPELLI LUCA M M2 97 PEDALE CESENATE CICLI NERI 03:13:27.42 12,10 03:13:27.42
538 BALDININI DANIELA F MW2 10 ASD POLISPORTIVA SANMAURESE NOB 03:13:51.00 12,07 03:13:51.00
539 GIULIANELLI ANDREA M M2 98 ASD CICLI ROSSINI 03:13:51.10 12,07 03:13:51.10
540 MASSACESI DAVID M M2 99 AVIS BIKE CINGOLI 03:13:51.52 12,07 03:13:51.52
541 DI GAETANO FABRIZIO M CT 8 MOLLA I FRENI RACING TEAM 03:13:51.93 12,07 03:13:51.93
542 MENGOZZI MAURO M M6 38 GOOD BIKE AS RONCOFREDDESE 03:13:52.20 12,07 03:13:52.20
543 LEONI DOMENICO M M6 39 AVIS BIKE CINGOLI 03:14:44.17 12,02 03:14:44.17
544 CIMINO FEDERICO M M3 78 CRAZY BIKE CAMERANO 03:14:47.60 12,01 03:14:47.60
545 CARBONI MICHELE M M1 66 ASD FUORISOGLIA 03:15:09.77 11,99 03:15:09.77
546 TOSI WIDMER M M7 17 SPACCO ASD 03:16:50.17 11,89 03:16:50.17
547 MANIQUA´ MIRKO M M2 100 ASD UC PORTO SANT ELPIDIO 03:16:52.30 11,89 03:16:33.33
548 BATTAGLIA GIUSEPPE M M3 79 ASD GRUPPO SPORTIVO ESERCITO 03:18:28.40 11,79 03:18:28.40
549 GIANNINI TULLIO M M6 40 ASD VALMARACING TEAM 03:18:29.00 11,79 03:18:29.00
550 ISIDORI GIAMPIERO M M3 80 ASD FOLGORE BIKE TEAM 03:18:56.10 11,76 03:18:56.10
551 ALATI GIUSEPPE M CT 9 RABITI DURI 03:18:58.17 11,76 03:18:46.07
552 GENTILINI MARCO M CT 11 ASD CICLO DUCALE URBINO 03:19:15.30 11,74 03:19:15.30
553 GIGLIONI GABRIELE M CT 10 BROMBO BIKERS 03:19:15.30 11,74 03:19:15.30
554 BELLUZZI GIANLUCA M M4 76 TEAM COSMOS 03:20:02.70 11,70 03:20:02.70
555 FARABEGOLI ALVERIO M M1 67 ASD CESENA BIKE 03:20:04.10 11,70 03:20:04.10
556 CAMPIDELLI ROBERTO M M4 77 ASD SBUBBIKERS 03:20:35.47 11,67 03:20:35.47
557 DIFILIPPO PIERGIORGIO M M4 78 ASD SBUBBIKERS 03:20:45.61 11,66 03:20:45.61
558 CAMPIDOGLIO GIUSEPPE M M4 79 MTB TURBOLENTI 03:21:19.18 11,62 03:21:19.18
559 PALMIERI VIRNA F MW1 8 ASD BIKERS RACING TEAM 03:21:21.30 11,62 03:21:21.30
560 VERINI VALENTINA F MW2 11 GS CASTELTROSINO SUPERBIKE 03:21:23.80 11,62 03:21:23.80
561 ZACCHINI MAURIZIO M M5 63 ASD GREEN DEVILS 03:21:36.20 11,61 03:21:36.20
562 FACONDINI SALVATORE M CT 12 RABITI DURI 03:22:05.60 11,58 03:21:56.56
563 CORTINI DONATELLA F MW2 12 TEAM PASSION FAENTINA 03:23:04.20 11,52 03:23:04.20
564 GOBBI NIKOLAS M ELMT 73 ASD SBUBBIKERS 03:23:40.50 11,49 03:23:40.50
565 GAGLIANO CLARA F MW2 13 BAMBANA BIKE 03:24:14.49 11,46 03:24:14.49
566 CONTI ANDREA M M4 80 DONKEY BIKE CLUB SINALUNGA 03:24:54.80 11,42 03:24:54.80
567 CRISTALLI ROBERTO M M3 81 ASD RAVEN TEAM 03:25:08.92 11,41 03:25:08.92
568 LUNADEI VALENTINO M M3 82 GOOD BIKE AS RONCOFREDDESE 03:25:09.60 11,41 03:25:09.60
569 SELVA SIMONA F MW2 14 ASD SBUBBIKERS 03:25:27.67 11,39 03:25:27.67
570 SALVADORI TOMMASO M M3 83 TEAM BIKE LUNANO 03:25:52.43 11,37 03:25:52.43
571 GOZZOLI MICHELE M CT 13 TEAM BOTA CESENATICO 03:26:11.10 11,35 03:26:11.10
572 CASADEI DANIELE M M3 84 ASD SBUBBIKERS 03:26:28.00 11,33 03:26:28.00
573 MANZI MARCO M CT 14 INDIVIDUALE 03:27:48.24 11,26 03:27:48.24
574 MAGNANI MARCO M M4 81 PEDALE CESENATE CICLI NERI 03:29:55.90 11,15 03:29:55.90
575 BACCHI GIANLUCA M M1 68 ASD BIKERS RACING TEAM 03:30:44.27 11,10 03:30:44.27
576 BOLLINI OMAR M M2 101 GS CICLI MATTEONI BIANCHI 03:31:26.50 11,07 03:31:26.50
577 PAPILLI MARCO M M1 69 GC MATELICA 03:36:46.99 10,80 03:36:46.99
578 BALOCCHI DONATELLA F MW2 15 GS CELLA 03:38:15.91 10,72 03:38:15.91
579 SIMONCINI ANDREA M ELMT 74 ASD SBUBBIKERS 03:39:33.38 10,66 03:39:33.38
580 MUSSONI CLAUDIA M M3 85 ASD SBUBBIKERS 03:42:41.58 10,51 03:42:37.18
581 ROSSI ANDREA M M4 82 LIVE IN BIKE ASD 03:42:42.80 10,51 03:42:38.40
582 CIRIELLI ANDREA M M5 64 ASD SBUBBIKERS 03:42:43.00 10,51 03:42:43.00
583 FORTI GIULIA F MW1 9 ASD SBUBBIKERS 03:46:58.20 10,31 03:46:58.20
584 GIACONI ALESSIO M M1 70 ASD GIULIODORI RENZO BIKE CLUB CAFE´ 03:47:17.30 10,30 03:47:17.30
585 DI GIULI CRISTIAN M ELMT 75 ASD TEAM BIKE VALCONCA 03:48:06.00 10,26 03:48:06.00
586 CECCAROLI MAURIZIO M M2 102 ASD SBUBBIKERS 03:49:37.41 10,19 03:49:37.41
587 CORBELLI LORIS M M5 65 ASD SBUBBIKERS 03:49:39.77 10,19 03:49:39.77
588 MARI ALESSANDRO M M5 66 ASD I BROMBO 03:55:29.19 9,94 03:55:29.19
589 PONTE MARCO M M4 83 CRAZY BIKE CAMERANO 03:55:32.84 9,93 03:55:32.84
590 BIANCHINI SIMONE M M1 71 ROWA TEAM 03:56:01.42 9,91 03:56:01.42
591 ALBERGHINI DENIS M M2 103 IEMA MTB TEAM 03:59:54.05 9,75 03:59:54.05
592 GESSI PAOLO M M6 41 ASD SBUBBIKERS 04:07:41.91 9,45 04:07:41.91
593 CECCARELLI ANTONELLA F MW2 16 ASD SBUBBIKERS 04:07:41.91 9,45 04:07:41.91
594 MESSI PAOLO M CT 15 ASD FALCO RACING 04:07:48.99 9,44 04:07:40.99
595 BRIGLIO NIGRO LORENZO M CT 16 INDIVIDUALE 04:15:49.16 9,15 04:15:41.16
596 SENIGAGLIESI MAURO M M6 42 ASD GF RACING 04:19:03.74 9,03 04:19:03.74
597 MIGLIOZZI FRANCESCO M M7 18 ASD GF RACING 04:19:03.91 9,03 04:19:03.91
DNF CIARMA FABRIZIO M M4 - GS CASTELTROSINO SUPERBIKE - - -
DNF CODICE´ NICOLA M ELMT - INDIVIDUALE - - -
DNF DE RITIS NICOLO´ M JUN - TEAM CINGOLANI - SPECIALIZED - - -
DNF GIORDANI GIORGIO M M5 - ASD GREEN DEVILS - - -
DNF LUSINI MARCO M M3 - TEAM BIKE BARBERINO MUGELLO - - -
DNF MARILUNGO ANDREA M M4 - CRAZY BIKE CAMERANO - - -
DNF SCHIAROLI MARCO M M2 - TEAM CINGOLANI - SPECIALIZED - - -

CORTO - 22.0 Km

Pos Atleta Sesso Cat PosC Team Tempo Media RTime
1 PENSERINI ELIA M ES 1 ASD TEAM BIKE VALCONCA 00:01:32.13 860,87 00:01:32.13
2 GAIA FILIPPO M ALL 1 ASCD VALLE DEL CONCA 00:02:05.20 633,60 00:02:05.20
3 MONTI MATTEO M ES 2 ASD LE SALINE NATURA E SPORT 00:09:56.03 132,89 00:09:56.03
4 MANCINI FRANCESCO M ES 3 ASCD VALLE DEL CONCA 00:16:48.12 78,57 00:16:48.12
5 PALLECCHI FEDERICO M ES 4 GS OLIMPIA VALDARNESE 00:53:34.20 24,64 00:53:34.20
6 MENGOZZI MARIA F DJ 1 ASD LE SALINE NATURA E SPORT 01:19:52.87 16,53 01:15:12.77
DNF TOZZI ALEX M ES - ASCD VALLE DEL CONCA - - -